createdAt,value
2017-12-27T00:00:46.438Z,7.43
2017-12-27T00:03:29.449Z,5.40
2017-12-27T00:06:04.708Z,5.37
2017-12-27T00:08:40.122Z,5.95
2017-12-27T00:11:15.574Z,8.00
2017-12-27T00:13:50.993Z,6.10
2017-12-27T00:16:26.461Z,6.57
2017-12-27T00:19:01.905Z,6.00
2017-12-27T00:21:37.293Z,6.37
2017-12-27T00:24:12.666Z,7.82
2017-12-27T00:26:48.047Z,6.78
2017-12-27T00:29:23.293Z,7.25
2017-12-27T00:31:52.421Z,7.45
2017-12-27T00:34:22.167Z,9.27
2017-12-27T00:36:51.866Z,8.25
2017-12-27T00:39:21.588Z,7.12
2017-12-27T00:41:51.406Z,6.78
2017-12-27T00:44:21.105Z,7.10
2017-12-27T00:46:50.830Z,5.90
2017-12-27T00:49:20.526Z,7.62
2017-12-27T00:51:50.236Z,7.75
2017-12-27T00:54:19.943Z,7.32
2017-12-27T00:56:49.723Z,6.72
2017-12-27T00:59:19.426Z,7.37
2017-12-27T01:01:49.250Z,6.85
2017-12-27T01:04:18.982Z,6.03
2017-12-27T01:06:48.705Z,6.43
2017-12-27T01:09:18.424Z,6.10
2017-12-27T01:11:48.347Z,7.00
2017-12-27T01:14:18.058Z,8.60
2017-12-27T01:16:47.752Z,8.45
2017-12-27T01:19:17.485Z,6.22
2017-12-27T01:21:47.189Z,7.18
2017-12-27T01:24:16.909Z,8.88
2017-12-27T01:26:46.612Z,6.07
2017-12-27T01:29:16.326Z,6.18
2017-12-27T01:31:46.029Z,6.80
2017-12-27T01:34:15.850Z,6.45
2017-12-27T01:36:45.557Z,6.80
2017-12-27T01:39:15.270Z,9.05
2017-12-27T01:41:44.873Z,8.35
2017-12-27T01:44:14.612Z,9.65
2017-12-27T01:46:43.793Z,6.20
2017-12-27T01:49:13.505Z,9.70
2017-12-27T01:51:43.043Z,6.25
2017-12-27T01:54:12.557Z,6.65
2017-12-27T01:56:42.105Z,6.40
2017-12-27T01:59:11.688Z,6.18
2017-12-27T02:01:41.401Z,6.07
2017-12-27T02:04:11.093Z,8.13
2017-12-27T02:06:40.822Z,5.55
2017-12-27T02:09:10.528Z,8.50
2017-12-27T02:11:40.246Z,7.20
2017-12-27T02:14:09.946Z,7.50
2017-12-27T02:16:39.662Z,6.97
2017-12-27T02:19:09.361Z,9.52
2017-12-27T02:21:39.087Z,6.95
2017-12-27T02:24:08.781Z,9.52
2017-12-27T02:26:38.500Z,6.37
2017-12-27T02:29:08.193Z,8.75
2017-12-27T02:31:37.909Z,7.80
2017-12-27T02:34:07.620Z,5.53
2017-12-27T02:36:37.345Z,6.03
2017-12-27T02:39:07.017Z,6.35
2017-12-27T02:41:36.726Z,6.85
2017-12-27T02:44:06.447Z,6.70
2017-12-27T02:46:36.149Z,7.82
2017-12-27T02:49:05.880Z,7.05
2017-12-27T02:51:35.591Z,7.12
2017-12-27T02:54:05.304Z,7.70
2017-12-27T02:56:35.015Z,6.97
2017-12-27T02:59:04.701Z,7.95
2017-12-27T03:01:34.413Z,7.03
2017-12-27T03:04:04.158Z,7.22
2017-12-27T03:06:33.885Z,9.88
2017-12-27T03:09:03.066Z,9.40
2017-12-27T03:11:32.781Z,8.65
2017-12-27T03:14:02.484Z,7.15
2017-12-27T03:16:32.209Z,6.70
2017-12-27T03:19:01.906Z,9.07
2017-12-27T03:21:31.657Z,7.32
2017-12-27T03:24:01.362Z,9.30
2017-12-27T03:26:31.282Z,8.88
2017-12-27T03:29:01.050Z,9.50
2017-12-27T03:31:30.800Z,10.60
2017-12-27T03:34:00.659Z,7.57
2017-12-27T03:36:30.401Z,7.82
2017-12-27T03:39:00.148Z,8.07
2017-12-27T03:41:29.881Z,9.48
2017-12-27T03:43:59.598Z,8.55
2017-12-27T03:46:29.309Z,7.80
2017-12-27T03:48:59.042Z,7.07
2017-12-27T03:51:28.926Z,7.80
2017-12-27T03:53:58.662Z,12.77
2017-12-27T03:56:28.366Z,7.00
2017-12-27T03:58:58.081Z,8.55
2017-12-27T04:01:27.801Z,8.27
2017-12-27T04:03:57.511Z,7.32
2017-12-27T04:06:27.236Z,7.25
2017-12-27T04:08:57.014Z,7.90
2017-12-27T04:11:26.728Z,8.85
2017-12-27T04:13:56.431Z,8.10
2017-12-27T04:16:26.184Z,7.97
2017-12-27T04:18:55.881Z,9.18
2017-12-27T04:21:25.665Z,10.00
2017-12-27T04:23:55.368Z,8.50
2017-12-27T04:26:25.082Z,7.87
2017-12-27T04:28:54.798Z,6.70
2017-12-27T04:31:24.533Z,6.53
2017-12-27T04:33:54.234Z,6.85
2017-12-27T04:36:23.998Z,14.50
2017-12-27T04:38:53.885Z,6.03
2017-12-27T04:41:23.595Z,7.97
2017-12-27T04:43:53.301Z,7.85
2017-12-27T04:46:23.017Z,6.22
2017-12-27T04:48:52.736Z,5.50
2017-12-27T04:51:22.425Z,9.35
2017-12-27T04:53:52.141Z,7.90
2017-12-27T04:56:21.661Z,6.50
2017-12-27T04:58:51.383Z,7.35
2017-12-27T05:01:21.093Z,6.60
2017-12-27T05:03:50.821Z,7.15
2017-12-27T05:06:20.534Z,6.50
2017-12-27T05:08:50.313Z,4.82
2017-12-27T05:11:20.173Z,6.72
2017-12-27T05:13:49.928Z,5.78
2017-12-27T05:16:19.631Z,8.80
2017-12-27T05:18:49.398Z,6.55
2017-12-27T05:21:19.212Z,6.05
2017-12-27T05:23:48.742Z,5.28
2017-12-27T05:26:18.276Z,6.85
2017-12-27T05:28:47.797Z,6.50
2017-12-27T05:31:17.512Z,9.95
2017-12-27T05:33:47.446Z,5.30
2017-12-27T05:36:17.235Z,6.20
2017-12-27T05:38:46.953Z,7.65
2017-12-27T05:41:16.668Z,5.95
2017-12-27T05:43:46.357Z,5.72
2017-12-27T05:46:16.085Z,6.97
2017-12-27T05:48:45.773Z,5.97
2017-12-27T05:51:15.500Z,6.22
2017-12-27T05:53:45.200Z,5.53
2017-12-27T05:56:14.983Z,5.30
2017-12-27T05:58:44.840Z,5.87
2017-12-27T06:01:14.586Z,5.72
2017-12-27T06:03:44.285Z,5.60
2017-12-27T06:06:14.016Z,5.20
2017-12-27T06:08:43.725Z,6.60
2017-12-27T06:11:13.445Z,8.25
2017-12-27T06:13:43.150Z,5.53
2017-12-27T06:16:12.857Z,6.18
2017-12-27T06:18:42.582Z,11.75
2017-12-27T06:21:12.099Z,5.55
2017-12-27T06:23:41.878Z,6.25
2017-12-27T06:26:11.578Z,9.35
2017-12-27T06:28:41.314Z,7.45
2017-12-27T06:31:11.109Z,7.05
2017-12-27T06:33:40.649Z,6.75
2017-12-27T06:36:10.373Z,4.95
2017-12-27T06:38:40.085Z,4.75
2017-12-27T06:41:09.802Z,5.20
2017-12-27T06:43:39.685Z,10.55
2017-12-27T06:46:09.400Z,5.25
2017-12-27T06:48:39.117Z,5.07
2017-12-27T06:51:08.842Z,4.57
2017-12-27T06:53:38.909Z,4.07
2017-12-27T06:56:08.618Z,3.87
2017-12-27T06:58:38.330Z,4.37
2017-12-27T07:01:08.175Z,3.95
2017-12-27T07:03:38.323Z,3.80
2017-12-27T07:06:08.164Z,2.85
2017-12-27T07:08:37.942Z,3.78
2017-12-27T07:11:07.654Z,4.10
2017-12-27T07:13:37.402Z,4.28
2017-12-27T07:16:07.123Z,3.10
2017-12-27T07:18:36.826Z,3.00
2017-12-27T07:21:06.558Z,2.22
2017-12-27T07:23:36.282Z,2.72
2017-12-27T07:26:06.011Z,2.90
2017-12-27T07:28:35.393Z,2.50
2017-12-27T07:31:04.918Z,2.22
2017-12-27T07:33:34.621Z,2.55
2017-12-27T07:36:04.340Z,2.50
2017-12-27T07:38:33.281Z,2.67
2017-12-27T07:41:02.815Z,2.50
2017-12-27T07:43:32.254Z,2.40
2017-12-27T07:46:01.693Z,2.93
2017-12-27T07:48:30.961Z,3.60
2017-12-27T07:51:00.302Z,2.23
2017-12-27T07:53:29.572Z,2.87
2017-12-27T07:55:59.046Z,2.80
2017-12-27T07:58:28.586Z,3.58
2017-12-27T08:00:57.925Z,2.87
2017-12-27T08:03:27.173Z,3.00
2017-12-27T08:05:56.459Z,2.60
2017-12-27T08:08:25.905Z,2.33
2017-12-27T08:10:55.342Z,2.27
2017-12-27T08:13:25.057Z,2.22
2017-12-27T08:15:54.684Z,2.70
2017-12-27T08:18:23.178Z,5.00
2017-12-27T08:20:52.689Z,3.37
2017-12-27T08:23:21.122Z,2.40
2017-12-27T08:25:49.812Z,2.83
2017-12-27T08:28:19.018Z,3.67
2017-12-27T08:30:47.714Z,1.90
2017-12-27T08:33:16.314Z,2.53
2017-12-27T08:35:46.102Z,1.85
2017-12-27T08:38:14.797Z,3.17
2017-12-27T08:40:44.031Z,3.87
2017-12-27T08:43:12.515Z,2.67
2017-12-27T08:45:40.959Z,3.50
2017-12-27T08:48:09.646Z,2.85
2017-12-27T08:50:38.846Z,2.87
2017-12-27T08:53:08.149Z,4.70
2017-12-27T08:55:37.343Z,2.50
2017-12-27T08:58:06.542Z,2.20
2017-12-27T09:00:36.075Z,3.27
2017-12-27T09:03:05.509Z,3.53
2017-12-27T09:05:34.962Z,3.13
2017-12-27T09:08:04.405Z,3.80
2017-12-27T09:10:33.885Z,2.57
2017-12-27T09:13:03.315Z,3.00
2017-12-27T09:15:32.553Z,2.73
2017-12-27T09:18:01.017Z,2.53
2017-12-27T09:20:29.434Z,2.97
2017-12-27T09:22:58.970Z,2.87
2017-12-27T09:25:28.230Z,2.60
2017-12-27T09:27:57.511Z,4.60
2017-12-27T09:30:25.930Z,8.13
2017-12-27T09:32:55.138Z,4.70
2017-12-27T09:35:23.562Z,3.30
2017-12-27T09:37:52.016Z,3.50
2017-12-27T09:40:20.560Z,5.97
2017-12-27T09:42:49.014Z,2.40
2017-12-27T09:45:17.658Z,2.70
2017-12-27T09:47:46.258Z,2.87
2017-12-27T09:50:14.706Z,2.70
2017-12-27T09:52:43.918Z,2.70
2017-12-27T09:55:12.358Z,3.20
2017-12-27T09:57:40.867Z,2.80
2017-12-27T10:00:10.070Z,3.07
2017-12-27T10:02:39.274Z,3.17
2017-12-27T10:05:08.496Z,3.07
2017-12-27T10:07:36.957Z,3.53
2017-12-27T10:10:06.218Z,3.47
2017-12-27T10:12:34.638Z,2.90
2017-12-27T10:15:03.838Z,3.50
2017-12-27T10:17:33.119Z,3.50
2017-12-27T10:20:01.558Z,3.93
2017-12-27T10:22:30.086Z,3.00
2017-12-27T10:24:59.326Z,3.57
2017-12-27T10:27:27.738Z,3.43
2017-12-27T10:29:56.044Z,2.93
2017-12-27T10:32:24.351Z,3.50
2017-12-27T10:34:52.582Z,3.53
2017-12-27T10:37:20.838Z,5.20
2017-12-27T10:39:49.264Z,5.37
2017-12-27T10:42:18.534Z,5.07
2017-12-27T10:44:46.766Z,4.53
2017-12-27T10:47:15.006Z,4.87
2017-12-27T10:49:43.239Z,3.93
2017-12-27T10:52:11.510Z,3.83
2017-12-27T10:54:39.755Z,3.67
2017-12-27T10:57:08.982Z,3.73
2017-12-27T10:59:37.209Z,5.37
2017-12-27T11:02:05.638Z,3.03
2017-12-27T11:04:34.093Z,5.60
2017-12-27T11:07:03.320Z,4.40
2017-12-27T11:09:31.775Z,3.70
2017-12-27T11:12:00.983Z,3.93
2017-12-27T11:14:30.414Z,4.60
2017-12-27T11:16:58.862Z,3.97
2017-12-27T11:19:28.045Z,4.20
2017-12-27T11:21:56.497Z,4.50
2017-12-27T11:24:25.067Z,4.43
2017-12-27T11:26:53.507Z,4.10
2017-12-27T11:29:22.834Z,3.87
2017-12-27T11:31:51.298Z,5.47
2017-12-27T11:34:20.480Z,6.40
2017-12-27T11:36:49.761Z,4.60
2017-12-27T11:39:18.193Z,4.33
2017-12-27T11:41:46.742Z,4.20
2017-12-27T11:44:15.206Z,7.00
2017-12-27T11:46:43.660Z,8.37
2017-12-27T11:49:12.191Z,5.37
2017-12-27T11:51:40.622Z,4.83
2017-12-27T11:54:09.196Z,5.90
2017-12-27T11:56:37.662Z,4.67
2017-12-27T11:59:06.852Z,7.33
2017-12-27T12:01:36.087Z,4.70
2017-12-27T12:04:04.517Z,4.43
2017-12-27T12:06:33.763Z,5.27
2017-12-27T12:09:02.180Z,5.00
2017-12-27T12:11:30.630Z,5.60
2017-12-27T12:13:59.099Z,5.40
2017-12-27T12:16:27.513Z,4.70
2017-12-27T12:18:55.954Z,5.43
2017-12-27T12:21:24.398Z,4.30
2017-12-27T12:23:53.004Z,4.70
2017-12-27T12:26:22.207Z,4.87
2017-12-27T12:28:51.397Z,4.57
2017-12-27T12:31:20.828Z,5.53
2017-12-27T12:33:49.397Z,4.40
2017-12-27T12:36:18.597Z,4.43
2017-12-27T12:38:47.989Z,4.70
2017-12-27T12:41:17.227Z,5.60
2017-12-27T12:43:45.642Z,4.60
2017-12-27T12:46:14.079Z,3.50
2017-12-27T12:48:42.501Z,4.00
2017-12-27T12:51:10.970Z,3.03
2017-12-27T12:53:39.889Z,3.23
2017-12-27T12:56:08.337Z,3.17
2017-12-27T12:58:37.722Z,2.70
2017-12-27T13:01:06.157Z,2.00
2017-12-27T13:03:34.586Z,2.47
2017-12-27T13:06:03.044Z,2.73
2017-12-27T13:08:32.260Z,2.80
2017-12-27T13:11:00.709Z,5.93
2017-12-27T13:13:28.963Z,2.67
2017-12-27T13:15:57.315Z,2.87
2017-12-27T13:18:25.797Z,3.23
2017-12-27T13:20:54.031Z,3.40
2017-12-27T13:23:22.463Z,3.90
2017-12-27T13:25:50.953Z,3.17
2017-12-27T13:28:19.191Z,6.00
2017-12-27T13:30:48.404Z,3.63
2017-12-27T13:33:16.995Z,4.10
2017-12-27T13:35:45.649Z,3.97
2017-12-27T13:38:14.656Z,4.87
2017-12-27T13:40:44.050Z,5.40
2017-12-27T13:43:13.122Z,8.97
2017-12-27T13:45:41.542Z,4.43
2017-12-27T13:48:10.738Z,4.97
2017-12-27T13:50:39.938Z,4.10
2017-12-27T13:53:09.271Z,4.00
2017-12-27T13:55:37.703Z,3.37
2017-12-27T13:58:06.234Z,3.50
2017-12-27T14:00:34.678Z,3.50
2017-12-27T14:03:03.860Z,4.60
2017-12-27T14:05:32.314Z,3.00
2017-12-27T14:08:00.985Z,3.70
2017-12-27T14:10:29.560Z,3.57
2017-12-27T14:12:57.996Z,3.50
2017-12-27T14:15:26.631Z,3.43
2017-12-27T14:17:55.087Z,3.30
2017-12-27T14:20:24.294Z,2.60
2017-12-27T14:22:53.646Z,2.93
2017-12-27T14:25:22.160Z,2.83
2017-12-27T14:27:51.386Z,3.33
2017-12-27T14:30:19.813Z,3.80
2017-12-27T14:32:48.242Z,3.73
2017-12-27T14:35:16.704Z,3.20
2017-12-27T14:37:45.339Z,3.10
2017-12-27T14:40:13.813Z,3.43
2017-12-27T14:42:42.242Z,3.43
2017-12-27T14:45:10.665Z,3.20
2017-12-27T14:47:39.101Z,4.37
2017-12-27T14:50:07.547Z,2.20
2017-12-27T14:52:35.971Z,2.40
2017-12-27T14:55:04.205Z,2.33
2017-12-27T14:57:32.655Z,2.70
2017-12-27T15:00:01.849Z,2.63
2017-12-27T15:02:31.114Z,2.67
2017-12-27T15:04:59.547Z,2.43
2017-12-27T15:07:27.966Z,2.60
2017-12-27T15:09:56.598Z,2.57
2017-12-27T15:12:25.810Z,2.87
2017-12-27T15:14:54.246Z,2.57
2017-12-27T15:17:22.809Z,3.80
2017-12-27T15:19:51.234Z,2.60
2017-12-27T15:22:20.454Z,2.33
2017-12-27T15:24:48.883Z,4.33
2017-12-27T15:27:17.536Z,2.63
2017-12-27T15:29:45.966Z,2.63
2017-12-27T15:32:14.447Z,2.70
2017-12-27T15:34:42.868Z,2.53
2017-12-27T15:37:11.436Z,2.50
2017-12-27T15:39:40.626Z,2.53
2017-12-27T15:42:09.822Z,2.90
2017-12-27T15:44:38.253Z,2.73
2017-12-27T15:47:06.745Z,2.73
2017-12-27T15:49:35.265Z,2.63
2017-12-27T15:52:03.709Z,3.47
2017-12-27T15:54:32.170Z,2.97
2017-12-27T15:57:00.635Z,3.10
2017-12-27T15:59:30.017Z,2.60
2017-12-27T16:01:58.550Z,3.27
2017-12-27T16:04:26.786Z,3.00
2017-12-27T16:06:56.030Z,2.30
2017-12-27T16:09:24.450Z,3.40
2017-12-27T16:11:52.915Z,2.50
2017-12-27T16:14:22.669Z,2.37
2017-12-27T16:16:51.866Z,2.90
2017-12-27T16:19:21.070Z,3.07
2017-12-27T16:21:50.272Z,2.67
2017-12-27T16:24:18.807Z,2.80
2017-12-27T16:26:47.275Z,4.40
2017-12-27T16:29:16.314Z,2.70
2017-12-27T16:31:44.561Z,2.60
2017-12-27T16:34:12.977Z,3.40
2017-12-27T16:36:42.183Z,3.80
2017-12-27T16:39:11.559Z,3.30
2017-12-27T16:41:39.995Z,3.37
2017-12-27T16:44:08.435Z,4.20
2017-12-27T16:46:36.893Z,4.43
2017-12-27T16:49:05.522Z,4.47
2017-12-27T16:51:34.874Z,3.83
2017-12-27T16:54:03.390Z,4.50
2017-12-27T16:56:32.589Z,4.20
2017-12-27T16:59:01.239Z,4.70
2017-12-27T17:01:29.657Z,4.50
2017-12-27T17:03:58.101Z,4.37
2017-12-27T17:06:26.546Z,4.13
2017-12-27T17:08:55.131Z,4.30
2017-12-27T17:11:24.326Z,3.73
2017-12-27T17:13:53.654Z,4.50
2017-12-27T17:16:22.145Z,3.97
2017-12-27T17:18:50.790Z,4.50
2017-12-27T17:21:19.983Z,4.10
2017-12-27T17:23:49.214Z,3.73
2017-12-27T17:26:17.778Z,2.87
2017-12-27T17:28:46.986Z,3.40
2017-12-27T17:31:15.413Z,3.07
2017-12-27T17:33:43.849Z,3.80
2017-12-27T17:36:13.023Z,3.03
2017-12-27T17:38:41.461Z,2.87
2017-12-27T17:41:10.032Z,3.00
2017-12-27T17:43:38.471Z,3.00
2017-12-27T17:46:07.746Z,3.50
2017-12-27T17:48:36.174Z,7.20
2017-12-27T17:51:05.374Z,3.80
2017-12-27T17:53:34.574Z,4.80
2017-12-27T17:56:03.839Z,11.57
2017-12-27T17:58:32.270Z,9.13
2017-12-27T18:01:00.731Z,8.17
2017-12-27T18:03:29.941Z,19.00
2017-12-27T18:05:58.397Z,14.03
2017-12-27T18:08:26.840Z,8.07
2017-12-27T18:10:55.266Z,6.00
2017-12-27T18:13:24.482Z,8.00
2017-12-27T18:15:52.935Z,9.23
2017-12-27T18:18:21.377Z,14.40
2017-12-27T18:20:49.971Z,13.17
2017-12-27T18:23:18.445Z,10.93
2017-12-27T18:25:46.885Z,10.43
2017-12-27T18:28:16.090Z,6.30
2017-12-27T18:30:45.334Z,8.60
2017-12-27T18:33:14.702Z,7.60
2017-12-27T18:35:43.131Z,6.60
2017-12-27T18:38:11.575Z,7.37
2017-12-27T18:40:40.003Z,6.37
2017-12-27T18:43:08.455Z,5.53
2017-12-27T18:45:36.885Z,7.80
2017-12-27T18:48:05.478Z,7.70
2017-12-27T18:50:34.530Z,4.50
2017-12-27T18:53:02.958Z,6.53
2017-12-27T18:55:32.178Z,6.00
2017-12-27T18:58:00.514Z,4.87
2017-12-27T19:00:28.773Z,4.90
2017-12-27T19:02:57.017Z,5.90
2017-12-27T19:05:25.483Z,5.03
2017-12-27T19:07:54.873Z,4.70
2017-12-27T19:10:23.890Z,5.93
2017-12-27T19:12:52.308Z,7.50
2017-12-27T19:15:20.746Z,6.67
2017-12-27T19:17:49.942Z,7.67
2017-12-27T19:20:19.176Z,5.73
2017-12-27T19:22:47.421Z,5.93
2017-12-27T19:25:15.852Z,7.77
2017-12-27T19:27:44.326Z,7.73
2017-12-27T19:30:12.766Z,7.47
2017-12-27T19:32:42.001Z,5.30
2017-12-27T19:35:10.475Z,4.37
2017-12-27T19:37:38.917Z,3.83
2017-12-27T19:40:08.121Z,3.63
2017-12-27T19:42:37.347Z,4.50
2017-12-27T19:45:05.784Z,7.83
2017-12-27T19:47:34.208Z,4.07
2017-12-27T19:50:02.636Z,4.90
2017-12-27T19:52:31.092Z,4.40
2017-12-27T19:54:59.530Z,4.80
2017-12-27T19:57:28.752Z,4.80
2017-12-27T19:59:57.167Z,5.37
2017-12-27T20:02:25.606Z,4.90
2017-12-27T20:04:54.034Z,6.47
2017-12-27T20:07:22.496Z,5.97
2017-12-27T20:09:50.983Z,4.70
2017-12-27T20:12:20.338Z,5.83
2017-12-27T20:14:49.585Z,6.03
2017-12-27T20:17:18.041Z,6.60
2017-12-27T20:19:46.475Z,5.70
2017-12-27T20:22:14.918Z,6.93
2017-12-27T20:24:43.361Z,5.83
2017-12-27T20:27:12.603Z,5.70
2017-12-27T20:29:41.090Z,5.70
2017-12-27T20:32:09.548Z,5.53
2017-12-27T20:34:37.963Z,6.10
2017-12-27T20:37:06.392Z,5.00
2017-12-27T20:39:35.574Z,4.40
2017-12-27T20:42:04.014Z,4.90
2017-12-27T20:44:32.453Z,5.80
2017-12-27T20:47:01.686Z,5.57
2017-12-27T20:49:30.157Z,5.17
2017-12-27T20:51:58.611Z,5.00
2017-12-27T20:54:27.828Z,5.20
2017-12-27T20:56:56.247Z,4.13
2017-12-27T20:59:24.710Z,4.50
2017-12-27T21:01:53.323Z,7.10
2017-12-27T21:04:21.781Z,4.40
2017-12-27T21:06:50.227Z,4.10
2017-12-27T21:09:19.436Z,2.97
2017-12-27T21:11:48.657Z,2.60
2017-12-27T21:14:17.136Z,2.50
2017-12-27T21:16:45.731Z,1.90
2017-12-27T21:19:14.318Z,2.17
2017-12-27T21:21:42.751Z,1.70
2017-12-27T21:24:11.611Z,1.57
2017-12-27T21:26:40.063Z,1.30
2017-12-27T21:29:08.493Z,1.23
2017-12-27T21:31:36.942Z,1.40
2017-12-27T21:34:05.390Z,1.20
2017-12-27T21:36:33.832Z,0.83
2017-12-27T21:39:02.304Z,0.90
2017-12-27T21:41:30.725Z,1.77
2017-12-27T21:44:00.054Z,1.17
2017-12-27T21:46:28.501Z,1.10
2017-12-27T21:49:03.330Z,1.10
2017-12-27T21:51:31.886Z,0.70
2017-12-27T21:54:00.342Z,1.47
2017-12-27T21:56:28.828Z,0.80
2017-12-27T21:59:02.826Z,0.80
2017-12-27T22:01:36.660Z,0.70
2017-12-27T22:04:05.120Z,0.60
2017-12-27T22:06:33.583Z,0.50
2017-12-27T22:09:02.027Z,0.50
2017-12-27T22:11:30.498Z,0.73
2017-12-27T22:13:58.596Z,0.70
2017-12-27T22:16:27.801Z,0.60
2017-12-27T22:18:56.992Z,0.60
2017-12-27T22:21:25.457Z,0.60
2017-12-27T22:23:53.933Z,0.60
2017-12-27T22:26:22.418Z,0.80
2017-12-27T22:28:50.853Z,0.67
2017-12-27T22:31:19.577Z,0.60
2017-12-27T22:33:49.284Z,0.68
2017-12-27T22:36:17.725Z,1.33
2017-12-27T22:38:46.167Z,0.90
2017-12-27T22:41:14.616Z,0.70
2017-12-27T22:43:43.172Z,1.97
2017-12-27T22:46:11.618Z,0.70
2017-12-27T22:48:40.093Z,0.63
2017-12-27T22:51:08.546Z,0.67
2017-12-27T22:53:37.291Z,1.00
2017-12-27T22:56:06.501Z,1.37
2017-12-27T22:58:35.688Z,0.60
2017-12-27T23:01:04.899Z,0.83
2017-12-27T23:03:33.594Z,1.00
2017-12-27T23:06:02.855Z,0.63
2017-12-27T23:08:32.206Z,0.80
2017-12-27T23:11:00.634Z,1.27
2017-12-27T23:13:29.087Z,1.10
2017-12-27T23:15:57.617Z,1.23
2017-12-27T23:18:26.062Z,1.50
2017-12-27T23:20:54.635Z,1.17
2017-12-27T23:23:23.111Z,1.17
2017-12-27T23:25:51.665Z,1.77
2017-12-27T23:28:20.862Z,1.37
2017-12-27T23:30:50.061Z,0.90
2017-12-27T23:33:19.277Z,1.33
2017-12-27T23:35:47.741Z,0.90
2017-12-27T23:38:16.941Z,0.83
2017-12-27T23:40:46.151Z,1.00
2017-12-27T23:43:14.838Z,0.75
2017-12-27T23:45:44.087Z,1.10
2017-12-27T23:48:12.858Z,1.15
2017-12-27T23:50:42.338Z,0.90
2017-12-27T23:53:10.786Z,1.30
2017-12-27T23:55:39.238Z,1.60
2017-12-27T23:58:08.114Z,1.30
